sensor_id;sensor_type;location;lat;lon;timestamp;P1;durP1;ratioP1;P2;durP2;ratioP2
78772;SDS011;68111;44.728;11.290;2023-06-24T00:01:16;13.15;;;6.07;;
78772;SDS011;68111;44.728;11.290;2023-06-24T00:03:43;10.07;;;5.57;;
78772;SDS011;68111;44.728;11.290;2023-06-24T00:06:13;13.48;;;5.47;;
78772;SDS011;68111;44.728;11.290;2023-06-24T00:08:45;11.82;;;5.72;;
78772;SDS011;68111;44.728;11.290;2023-06-24T00:11:13;13.38;;;5.68;;
78772;SDS011;68111;44.728;11.290;2023-06-24T00:13:41;15.15;;;6.10;;
78772;SDS011;68111;44.728;11.290;2023-06-24T00:16:09;13.60;;;6.30;;
78772;SDS011;68111;44.728;11.290;2023-06-24T00:18:36;13.57;;;6.30;;
78772;SDS011;68111;44.728;11.290;2023-06-24T00:21:07;11.90;;;6.38;;
78772;SDS011;68111;44.728;11.290;2023-06-24T00:23:34;15.57;;;7.00;;
78772;SDS011;68111;44.728;11.290;2023-06-24T00:26:00;15.05;;;7.57;;
78772;SDS011;68111;44.728;11.290;2023-06-24T00:28:27;15.93;;;7.50;;
78772;SDS011;68111;44.728;11.290;2023-06-24T00:30:54;16.80;;;8.02;;
78772;SDS011;68111;44.728;11.290;2023-06-24T00:33:21;14.85;;;8.52;;
78772;SDS011;68111;44.728;11.290;2023-06-24T00:35:49;13.73;;;9.07;;
78772;SDS011;68111;44.728;11.290;2023-06-24T00:38:16;17.35;;;9.40;;
78772;SDS011;68111;44.728;11.290;2023-06-24T00:40:42;15.18;;;9.10;;
78772;SDS011;68111;44.728;11.290;2023-06-24T00:43:09;17.80;;;10.13;;
78772;SDS011;68111;44.728;11.290;2023-06-24T00:45:36;17.08;;;10.18;;
78772;SDS011;68111;44.728;11.290;2023-06-24T00:48:03;17.35;;;10.25;;
78772;SDS011;68111;44.728;11.290;2023-06-24T00:50:31;20.30;;;11.13;;
78772;SDS011;68111;44.728;11.290;2023-06-24T00:52:58;17.02;;;10.18;;
78772;SDS011;68111;44.728;11.290;2023-06-24T00:55:25;18.40;;;10.77;;
78772;SDS011;68111;44.728;11.290;2023-06-24T00:57:55;19.27;;;10.63;;
78772;SDS011;68111;44.728;11.290;2023-06-24T01:00:22;18.27;;;11.43;;
78772;SDS011;68111;44.728;11.290;2023-06-24T01:02:49;19.92;;;10.77;;
78772;SDS011;68111;44.728;11.290;2023-06-24T01:05:17;17.85;;;11.13;;
78772;SDS011;68111;44.728;11.290;2023-06-24T01:07:44;15.00;;;10.63;;
78772;SDS011;68111;44.728;11.290;2023-06-24T01:10:22;18.38;;;11.60;;
78772;SDS011;68111;44.728;11.290;2023-06-24T01:12:49;20.83;;;11.88;;
78772;SDS011;68111;44.728;11.290;2023-06-24T01:15:16;19.80;;;10.70;;
78772;SDS011;68111;44.728;11.290;2023-06-24T01:17:45;16.23;;;10.15;;
78772;SDS011;68111;44.728;11.290;2023-06-24T01:20:20;17.52;;;11.38;;
78772;SDS011;68111;44.728;11.290;2023-06-24T01:33:57;20.50;;;11.88;;
78772;SDS011;68111;44.728;11.290;2023-06-24T01:36:30;21.13;;;12.80;;
78772;SDS011;68111;44.728;11.290;2023-06-24T01:39:01;21.33;;;12.23;;
78772;SDS011;68111;44.728;11.290;2023-06-24T01:41:34;18.90;;;11.77;;
78772;SDS011;68111;44.728;11.290;2023-06-24T01:44:11;19.02;;;12.70;;
78772;SDS011;68111;44.728;11.290;2023-06-24T01:46:41;19.98;;;12.30;;
78772;SDS011;68111;44.728;11.290;2023-06-24T01:49:13;16.95;;;12.05;;
78772;SDS011;68111;44.728;11.290;2023-06-24T01:51:42;22.17;;;12.93;;
78772;SDS011;68111;44.728;11.290;2023-06-24T01:54:14;19.48;;;12.20;;
78772;SDS011;68111;44.728;11.290;2023-06-24T01:56:45;20.88;;;12.35;;
78772;SDS011;68111;44.728;11.290;2023-06-24T01:59:14;20.67;;;12.80;;
78772;SDS011;68111;44.728;11.290;2023-06-24T02:01:43;22.48;;;12.65;;
78772;SDS011;68111;44.728;11.290;2023-06-24T02:04:11;21.23;;;12.48;;
78772;SDS011;68111;44.728;11.290;2023-06-24T02:06:40;21.50;;;12.43;;
78772;SDS011;68111;44.728;11.290;2023-06-24T02:09:08;19.77;;;13.05;;
78772;SDS011;68111;44.728;11.290;2023-06-24T02:11:37;17.90;;;13.15;;
78772;SDS011;68111;44.728;11.290;2023-06-24T02:14:06;21.67;;;14.10;;
78772;SDS011;68111;44.728;11.290;2023-06-24T02:16:35;22.77;;;13.20;;
78772;SDS011;68111;44.728;11.290;2023-06-24T02:19:09;23.83;;;14.05;;
78772;SDS011;68111;44.728;11.290;2023-06-24T02:21:38;19.50;;;13.90;;
78772;SDS011;68111;44.728;11.290;2023-06-24T02:24:08;23.95;;;13.82;;
78772;SDS011;68111;44.728;11.290;2023-06-24T02:26:35;19.75;;;13.40;;
78772;SDS011;68111;44.728;11.290;2023-06-24T02:29:08;18.65;;;13.40;;
78772;SDS011;68111;44.728;11.290;2023-06-24T02:31:37;24.75;;;14.85;;
78772;SDS011;68111;44.728;11.290;2023-06-24T02:34:03;23.75;;;13.95;;
78772;SDS011;68111;44.728;11.290;2023-06-24T02:36:30;20.60;;;14.55;;
78772;SDS011;68111;44.728;11.290;2023-06-24T02:38:57;23.08;;;15.68;;
78772;SDS011;68111;44.728;11.290;2023-06-24T02:41:24;20.55;;;14.57;;
78772;SDS011;68111;44.728;11.290;2023-06-24T02:43:51;22.33;;;15.30;;
78772;SDS011;68111;44.728;11.290;2023-06-24T02:46:18;19.10;;;14.70;;
78772;SDS011;68111;44.728;11.290;2023-06-24T02:48:47;24.42;;;16.60;;
78772;SDS011;68111;44.728;11.290;2023-06-24T02:51:15;23.63;;;15.70;;
78772;SDS011;68111;44.728;11.290;2023-06-24T02:53:42;22.77;;;15.05;;
78772;SDS011;68111;44.728;11.290;2023-06-24T02:56:13;22.48;;;16.77;;
78772;SDS011;68111;44.728;11.290;2023-06-24T02:58:43;24.88;;;17.17;;
78772;SDS011;68111;44.728;11.290;2023-06-24T03:01:18;24.50;;;16.52;;
78772;SDS011;68111;44.728;11.290;2023-06-24T03:03:52;26.65;;;16.65;;
78772;SDS011;68111;44.728;11.290;2023-06-24T03:06:21;22.77;;;16.35;;
78772;SDS011;68111;44.728;11.290;2023-06-24T03:08:49;21.58;;;15.57;;
78772;SDS011;68111;44.728;11.290;2023-06-24T03:11:19;23.33;;;17.30;;
78772;SDS011;68111;44.728;11.290;2023-06-24T03:13:47;24.05;;;16.23;;
78772;SDS011;68111;44.728;11.290;2023-06-24T03:16:19;32.70;;;17.42;;
78772;SDS011;68111;44.728;11.290;2023-06-24T03:18:54;23.13;;;16.65;;
78772;SDS011;68111;44.728;11.290;2023-06-24T03:21:21;23.73;;;17.85;;
78772;SDS011;68111;44.728;11.290;2023-06-24T03:23:49;25.73;;;18.35;;
78772;SDS011;68111;44.728;11.290;2023-06-24T03:26:16;27.15;;;18.73;;
78772;SDS011;68111;44.728;11.290;2023-06-24T03:28:43;25.00;;;17.55;;
78772;SDS011;68111;44.728;11.290;2023-06-24T03:31:14;27.45;;;16.05;;
78772;SDS011;68111;44.728;11.290;2023-06-24T03:33:44;26.03;;;16.17;;
78772;SDS011;68111;44.728;11.290;2023-06-24T03:36:13;24.00;;;16.98;;
78772;SDS011;68111;44.728;11.290;2023-06-24T03:38:41;25.15;;;17.17;;
78772;SDS011;68111;44.728;11.290;2023-06-24T03:41:08;26.05;;;16.65;;
78772;SDS011;68111;44.728;11.290;2023-06-24T03:43:35;21.83;;;15.05;;
78772;SDS011;68111;44.728;11.290;2023-06-24T03:46:01;23.33;;;16.20;;
78772;SDS011;68111;44.728;11.290;2023-06-24T03:48:29;24.05;;;16.85;;
78772;SDS011;68111;44.728;11.290;2023-06-24T03:50:56;24.70;;;17.05;;
78772;SDS011;68111;44.728;11.290;2023-06-24T03:53:23;25.70;;;17.38;;
78772;SDS011;68111;44.728;11.290;2023-06-24T03:55:50;25.20;;;17.67;;
78772;SDS011;68111;44.728;11.290;2023-06-24T03:58:17;25.05;;;18.27;;
78772;SDS011;68111;44.728;11.290;2023-06-24T04:00:48;26.80;;;18.13;;
78772;SDS011;68111;44.728;11.290;2023-06-24T04:03:16;26.10;;;17.17;;
78772;SDS011;68111;44.728;11.290;2023-06-24T04:05:45;23.73;;;17.25;;
78772;SDS011;68111;44.728;11.290;2023-06-24T04:08:12;24.63;;;18.63;;
78772;SDS011;68111;44.728;11.290;2023-06-24T04:10:39;27.60;;;17.90;;
78772;SDS011;68111;44.728;11.290;2023-06-24T04:13:05;29.73;;;17.75;;
78772;SDS011;68111;44.728;11.290;2023-06-24T04:15:32;23.67;;;17.05;;
78772;SDS011;68111;44.728;11.290;2023-06-24T04:17:59;21.73;;;16.25;;
78772;SDS011;68111;44.728;11.290;2023-06-24T04:20:26;25.38;;;16.48;;
78772;SDS011;68111;44.728;11.290;2023-06-24T04:22:53;22.80;;;16.85;;
78772;SDS011;68111;44.728;11.290;2023-06-24T04:25:20;20.63;;;15.43;;
78772;SDS011;68111;44.728;11.290;2023-06-24T04:27:46;22.40;;;13.10;;
78772;SDS011;68111;44.728;11.290;2023-06-24T04:30:13;19.40;;;12.63;;
78772;SDS011;68111;44.728;11.290;2023-06-24T04:32:40;22.65;;;12.05;;
78772;SDS011;68111;44.728;11.290;2023-06-24T04:35:08;17.02;;;11.27;;
78772;SDS011;68111;44.728;11.290;2023-06-24T04:37:37;19.33;;;12.20;;
78772;SDS011;68111;44.728;11.290;2023-06-24T04:40:04;18.55;;;11.52;;
78772;SDS011;68111;44.728;11.290;2023-06-24T04:42:32;19.13;;;12.70;;
78772;SDS011;68111;44.728;11.290;2023-06-24T04:44:59;19.95;;;11.55;;
78772;SDS011;68111;44.728;11.290;2023-06-24T04:47:25;18.27;;;11.32;;
78772;SDS011;68111;44.728;11.290;2023-06-24T04:49:52;15.32;;;10.65;;
78772;SDS011;68111;44.728;11.290;2023-06-24T04:52:19;16.83;;;11.63;;
78772;SDS011;68111;44.728;11.290;2023-06-24T04:54:45;19.70;;;11.38;;
78772;SDS011;68111;44.728;11.290;2023-06-24T04:57:22;17.95;;;11.90;;
78772;SDS011;68111;44.728;11.290;2023-06-24T04:59:50;18.88;;;11.38;;
78772;SDS011;68111;44.728;11.290;2023-06-24T05:02:17;19.05;;;11.02;;
78772;SDS011;68111;44.728;11.290;2023-06-24T05:04:43;17.92;;;11.90;;
78772;SDS011;68111;44.728;11.290;2023-06-24T05:07:10;20.92;;;12.93;;
78772;SDS011;68111;44.728;11.290;2023-06-24T05:09:38;17.88;;;12.60;;
78772;SDS011;68111;44.728;11.290;2023-06-24T05:12:05;17.30;;;12.30;;
78772;SDS011;68111;44.728;11.290;2023-06-24T05:14:34;18.20;;;12.60;;
78772;SDS011;68111;44.728;11.290;2023-06-24T05:17:01;19.17;;;13.68;;
78772;SDS011;68111;44.728;11.290;2023-06-24T05:19:31;15.20;;;12.23;;
78772;SDS011;68111;44.728;11.290;2023-06-24T05:21:58;18.02;;;12.73;;
78772;SDS011;68111;44.728;11.290;2023-06-24T05:24:25;18.23;;;13.23;;
78772;SDS011;68111;44.728;11.290;2023-06-24T05:26:52;17.30;;;13.27;;
78772;SDS011;68111;44.728;11.290;2023-06-24T05:29:18;15.70;;;13.73;;
78772;SDS011;68111;44.728;11.290;2023-06-24T05:31:45;19.17;;;13.70;;
78772;SDS011;68111;44.728;11.290;2023-06-24T05:34:12;18.08;;;12.10;;
78772;SDS011;68111;44.728;11.290;2023-06-24T05:36:39;20.15;;;13.55;;
78772;SDS011;68111;44.728;11.290;2023-06-24T05:39:06;17.80;;;12.88;;
78772;SDS011;68111;44.728;11.290;2023-06-24T05:41:34;15.90;;;11.52;;
78772;SDS011;68111;44.728;11.290;2023-06-24T05:44:02;16.88;;;13.00;;
78772;SDS011;68111;44.728;11.290;2023-06-24T05:46:31;14.57;;;11.35;;
78772;SDS011;68111;44.728;11.290;2023-06-24T05:48:57;16.42;;;12.43;;
78772;SDS011;68111;44.728;11.290;2023-06-24T05:51:24;17.35;;;12.60;;
78772;SDS011;68111;44.728;11.290;2023-06-24T05:53:51;13.82;;;11.57;;
78772;SDS011;68111;44.728;11.290;2023-06-24T05:56:18;15.50;;;11.48;;
78772;SDS011;68111;44.728;11.290;2023-06-24T05:58:44;18.35;;;11.70;;
78772;SDS011;68111;44.728;11.290;2023-06-24T06:01:11;12.90;;;9.57;;
78772;SDS011;68111;44.728;11.290;2023-06-24T06:03:38;17.52;;;11.80;;
78772;SDS011;68111;44.728;11.290;2023-06-24T06:06:05;14.23;;;8.68;;
78772;SDS011;68111;44.728;11.290;2023-06-24T06:08:31;14.32;;;9.30;;
78772;SDS011;68111;44.728;11.290;2023-06-24T06:10:58;12.70;;;8.02;;
78772;SDS011;68111;44.728;11.290;2023-06-24T06:13:25;11.52;;;7.90;;
78772;SDS011;68111;44.728;11.290;2023-06-24T06:15:52;12.57;;;7.85;;
78772;SDS011;68111;44.728;11.290;2023-06-24T06:18:18;8.93;;;6.30;;
78772;SDS011;68111;44.728;11.290;2023-06-24T06:20:45;8.38;;;6.10;;
78772;SDS011;68111;44.728;11.290;2023-06-24T06:23:11;9.48;;;5.78;;
78772;SDS011;68111;44.728;11.290;2023-06-24T06:25:38;9.32;;;5.80;;
78772;SDS011;68111;44.728;11.290;2023-06-24T06:28:05;9.23;;;5.72;;
78772;SDS011;68111;44.728;11.290;2023-06-24T06:30:32;7.63;;;5.20;;
78772;SDS011;68111;44.728;11.290;2023-06-24T06:32:58;11.82;;;6.03;;
78772;SDS011;68111;44.728;11.290;2023-06-24T06:35:25;8.05;;;5.85;;
78772;SDS011;68111;44.728;11.290;2023-06-24T06:37:52;7.35;;;5.20;;
78772;SDS011;68111;44.728;11.290;2023-06-24T06:40:22;8.20;;;5.00;;
78772;SDS011;68111;44.728;11.290;2023-06-24T06:42:49;10.40;;;4.68;;
78772;SDS011;68111;44.728;11.290;2023-06-24T06:45:16;8.23;;;4.82;;
78772;SDS011;68111;44.728;11.290;2023-06-24T06:47:44;7.70;;;4.53;;
78772;SDS011;68111;44.728;11.290;2023-06-24T06:50:11;7.75;;;4.50;;
78772;SDS011;68111;44.728;11.290;2023-06-24T06:52:38;8.38;;;5.30;;
78772;SDS011;68111;44.728;11.290;2023-06-24T06:55:05;8.45;;;5.60;;
78772;SDS011;68111;44.728;11.290;2023-06-24T06:57:32;8.02;;;5.60;;
78772;SDS011;68111;44.728;11.290;2023-06-24T06:59:59;7.53;;;5.20;;
78772;SDS011;68111;44.728;11.290;2023-06-24T07:02:25;7.85;;;5.03;;
78772;SDS011;68111;44.728;11.290;2023-06-24T07:04:52;7.95;;;5.68;;
78772;SDS011;68111;44.728;11.290;2023-06-24T07:07:19;8.70;;;5.18;;
78772;SDS011;68111;44.728;11.290;2023-06-24T07:09:46;7.18;;;5.15;;
78772;SDS011;68111;44.728;11.290;2023-06-24T07:12:14;12.30;;;9.07;;
78772;SDS011;68111;44.728;11.290;2023-06-24T07:14:40;9.68;;;5.45;;
78772;SDS011;68111;44.728;11.290;2023-06-24T07:17:07;7.22;;;5.28;;
78772;SDS011;68111;44.728;11.290;2023-06-24T07:19:34;7.85;;;5.22;;
78772;SDS011;68111;44.728;11.290;2023-06-24T07:22:01;7.63;;;5.07;;
78772;SDS011;68111;44.728;11.290;2023-06-24T07:24:27;8.77;;;6.47;;
78772;SDS011;68111;44.728;11.290;2023-06-24T07:26:54;7.38;;;5.10;;
78772;SDS011;68111;44.728;11.290;2023-06-24T07:29:21;7.25;;;5.00;;
78772;SDS011;68111;44.728;11.290;2023-06-24T07:31:47;9.02;;;5.40;;
78772;SDS011;68111;44.728;11.290;2023-06-24T07:34:14;8.30;;;5.10;;
78772;SDS011;68111;44.728;11.290;2023-06-24T07:36:41;7.95;;;5.15;;
78772;SDS011;68111;44.728;11.290;2023-06-24T07:39:08;7.32;;;5.32;;
78772;SDS011;68111;44.728;11.290;2023-06-24T07:41:35;6.50;;;5.13;;
78772;SDS011;68111;44.728;11.290;2023-06-24T07:44:01;9.18;;;5.40;;
78772;SDS011;68111;44.728;11.290;2023-06-24T07:46:28;6.38;;;5.15;;
78772;SDS011;68111;44.728;11.290;2023-06-24T07:48:56;10.00;;;5.60;;
78772;SDS011;68111;44.728;11.290;2023-06-24T07:51:23;7.18;;;5.18;;
78772;SDS011;68111;44.728;11.290;2023-06-24T07:53:49;10.68;;;5.90;;
78772;SDS011;68111;44.728;11.290;2023-06-24T07:56:16;7.45;;;5.10;;
78772;SDS011;68111;44.728;11.290;2023-06-24T07:58:43;7.47;;;4.60;;
78772;SDS011;68111;44.728;11.290;2023-06-24T08:01:09;6.65;;;4.78;;
78772;SDS011;68111;44.728;11.290;2023-06-24T08:03:36;7.68;;;4.50;;
78772;SDS011;68111;44.728;11.290;2023-06-24T08:06:03;6.63;;;4.40;;
78772;SDS011;68111;44.728;11.290;2023-06-24T08:08:30;9.45;;;5.18;;
78772;SDS011;68111;44.728;11.290;2023-06-24T08:10:57;7.53;;;4.93;;
78772;SDS011;68111;44.728;11.290;2023-06-24T08:13:23;10.20;;;6.10;;
78772;SDS011;68111;44.728;11.290;2023-06-24T08:15:50;7.78;;;4.90;;
78772;SDS011;68111;44.728;11.290;2023-06-24T08:18:17;8.65;;;4.82;;
78772;SDS011;68111;44.728;11.290;2023-06-24T08:20:44;7.28;;;4.53;;
78772;SDS011;68111;44.728;11.290;2023-06-24T08:23:10;6.47;;;4.65;;
78772;SDS011;68111;44.728;11.290;2023-06-24T08:25:37;9.10;;;4.80;;
78772;SDS011;68111;44.728;11.290;2023-06-24T08:28:04;6.53;;;4.47;;
78772;SDS011;68111;44.728;11.290;2023-06-24T08:30:31;8.50;;;4.80;;
78772;SDS011;68111;44.728;11.290;2023-06-24T08:32:59;8.15;;;4.80;;
78772;SDS011;68111;44.728;11.290;2023-06-24T08:35:26;6.97;;;4.95;;
78772;SDS011;68111;44.728;11.290;2023-06-24T08:37:52;6.50;;;4.65;;
78772;SDS011;68111;44.728;11.290;2023-06-24T08:40:19;6.68;;;4.63;;
78772;SDS011;68111;44.728;11.290;2023-06-24T08:42:46;6.57;;;4.80;;
78772;SDS011;68111;44.728;11.290;2023-06-24T08:45:12;8.88;;;4.93;;
78772;SDS011;68111;44.728;11.290;2023-06-24T08:47:39;6.43;;;4.78;;
78772;SDS011;68111;44.728;11.290;2023-06-24T08:50:08;10.63;;;6.43;;
78772;SDS011;68111;44.728;11.290;2023-06-24T08:52:38;6.55;;;4.40;;
78772;SDS011;68111;44.728;11.290;2023-06-24T08:55:10;8.25;;;4.60;;
78772;SDS011;68111;44.728;11.290;2023-06-24T08:57:40;6.57;;;4.97;;
78772;SDS011;68111;44.728;11.290;2023-06-24T09:00:06;7.85;;;4.63;;
78772;SDS011;68111;44.728;11.290;2023-06-24T09:02:37;5.53;;;4.68;;
78772;SDS011;68111;44.728;11.290;2023-06-24T09:05:05;8.57;;;4.75;;
78772;SDS011;68111;44.728;11.290;2023-06-24T09:07:33;8.65;;;4.55;;
78772;SDS011;68111;44.728;11.290;2023-06-24T09:10:00;5.72;;;4.35;;
78772;SDS011;68111;44.728;11.290;2023-06-24T09:12:27;7.07;;;4.30;;
78772;SDS011;68111;44.728;11.290;2023-06-24T09:14:57;4.63;;;4.22;;
78772;SDS011;68111;44.728;11.290;2023-06-24T09:17:24;7.05;;;4.43;;
78772;SDS011;68111;44.728;11.290;2023-06-24T09:19:53;5.80;;;4.18;;
78772;SDS011;68111;44.728;11.290;2023-06-24T09:22:20;5.90;;;4.40;;
78772;SDS011;68111;44.728;11.290;2023-06-24T09:24:47;6.75;;;4.55;;
78772;SDS011;68111;44.728;11.290;2023-06-24T09:27:15;5.93;;;4.38;;
78772;SDS011;68111;44.728;11.290;2023-06-24T09:29:42;9.65;;;4.90;;
78772;SDS011;68111;44.728;11.290;2023-06-24T09:32:09;6.53;;;4.45;;
78772;SDS011;68111;44.728;11.290;2023-06-24T09:34:36;6.07;;;4.60;;
78772;SDS011;68111;44.728;11.290;2023-06-24T09:37:03;6.38;;;4.30;;
78772;SDS011;68111;44.728;11.290;2023-06-24T09:39:34;5.38;;;4.40;;
78772;SDS011;68111;44.728;11.290;2023-06-24T09:42:03;6.80;;;4.47;;
78772;SDS011;68111;44.728;11.290;2023-06-24T09:44:32;6.18;;;4.05;;
78772;SDS011;68111;44.728;11.290;2023-06-24T09:46:59;5.53;;;4.68;;
78772;SDS011;68111;44.728;11.290;2023-06-24T09:49:26;6.47;;;4.55;;
78772;SDS011;68111;44.728;11.290;2023-06-24T09:51:57;5.60;;;4.40;;
78772;SDS011;68111;44.728;11.290;2023-06-24T09:54:26;7.40;;;4.40;;
78772;SDS011;68111;44.728;11.290;2023-06-24T09:57:01;6.25;;;4.53;;
78772;SDS011;68111;44.728;11.290;2023-06-24T10:01:57;6.55;;;4.45;;
78772;SDS011;68111;44.728;11.290;2023-06-24T10:04:24;6.30;;;4.53;;
78772;SDS011;68111;44.728;11.290;2023-06-24T10:06:54;5.63;;;4.32;;
78772;SDS011;68111;44.728;11.290;2023-06-24T10:09:21;7.60;;;4.72;;
78772;SDS011;68111;44.728;11.290;2023-06-24T10:11:48;6.57;;;4.90;;
78772;SDS011;68111;44.728;11.290;2023-06-24T10:14:15;6.05;;;4.70;;
78772;SDS011;68111;44.728;11.290;2023-06-24T10:16:42;7.25;;;4.18;;
78772;SDS011;68111;44.728;11.290;2023-06-24T10:19:09;5.68;;;4.10;;
78772;SDS011;68111;44.728;11.290;2023-06-24T10:24:27;6.10;;;3.80;;
78772;SDS011;68111;44.728;11.290;2023-06-24T10:27:21;7.38;;;4.50;;
78772;SDS011;68111;44.728;11.290;2023-06-24T10:29:49;4.57;;;3.83;;
78772;SDS011;68111;44.728;11.290;2023-06-24T10:32:18;5.37;;;4.00;;
78772;SDS011;68111;44.728;11.290;2023-06-24T10:34:47;5.43;;;3.55;;
78772;SDS011;68111;44.728;11.290;2023-06-24T10:37:39;5.13;;;3.72;;
78772;SDS011;68111;44.728;11.290;2023-06-24T10:40:06;5.82;;;3.75;;
78772;SDS011;68111;44.728;11.290;2023-06-24T10:42:37;6.90;;;3.78;;
78772;SDS011;68111;44.728;11.290;2023-06-24T10:45:14;5.53;;;4.03;;
78772;SDS011;68111;44.728;11.290;2023-06-24T10:47:44;5.88;;;3.80;;
78772;SDS011;68111;44.728;11.290;2023-06-24T10:50:16;5.88;;;3.58;;
78772;SDS011;68111;44.728;11.290;2023-06-24T10:52:45;5.85;;;3.42;;
78772;SDS011;68111;44.728;11.290;2023-06-24T10:55:14;5.37;;;4.00;;
78772;SDS011;68111;44.728;11.290;2023-06-24T10:57:42;6.68;;;3.75;;
78772;SDS011;68111;44.728;11.290;2023-06-24T11:00:10;4.18;;;3.10;;
78772;SDS011;68111;44.728;11.290;2023-06-24T11:02:38;9.57;;;4.45;;
78772;SDS011;68111;44.728;11.290;2023-06-24T11:05:05;8.73;;;3.90;;
78772;SDS011;68111;44.728;11.290;2023-06-24T11:07:32;6.07;;;2.90;;
78772;SDS011;68111;44.728;11.290;2023-06-24T11:10:02;3.95;;;2.60;;
78772;SDS011;68111;44.728;11.290;2023-06-24T11:12:34;7.50;;;4.57;;
78772;SDS011;68111;44.728;11.290;2023-06-24T11:15:03;4.22;;;2.90;;
78772;SDS011;68111;44.728;11.290;2023-06-24T11:17:32;4.38;;;2.78;;
78772;SDS011;68111;44.728;11.290;2023-06-24T11:20:00;4.15;;;2.55;;
78772;SDS011;68111;44.728;11.290;2023-06-24T11:22:27;4.78;;;3.20;;
78772;SDS011;68111;44.728;11.290;2023-06-24T11:24:54;6.70;;;3.40;;
78772;SDS011;68111;44.728;11.290;2023-06-24T11:27:26;8.68;;;5.63;;
78772;SDS011;68111;44.728;11.290;2023-06-24T11:29:54;5.05;;;3.30;;
78772;SDS011;68111;44.728;11.290;2023-06-24T11:32:22;4.45;;;2.55;;
78772;SDS011;68111;44.728;11.290;2023-06-24T11:34:49;9.00;;;4.70;;
78772;SDS011;68111;44.728;11.290;2023-06-24T11:37:18;3.78;;;2.63;;
78772;SDS011;68111;44.728;11.290;2023-06-24T11:39:55;6.63;;;3.10;;
78772;SDS011;68111;44.728;11.290;2023-06-24T11:42:27;7.65;;;4.45;;
78772;SDS011;68111;44.728;11.290;2023-06-24T11:44:58;6.72;;;4.03;;
78772;SDS011;68111;44.728;11.290;2023-06-24T11:47:27;4.55;;;2.70;;
78772;SDS011;68111;44.728;11.290;2023-06-24T11:49:58;3.63;;;2.92;;
78772;SDS011;68111;44.728;11.290;2023-06-24T11:55:20;5.50;;;2.80;;
78772;SDS011;68111;44.728;11.290;2023-06-24T12:00:32;4.47;;;2.78;;
78772;SDS011;68111;44.728;11.290;2023-06-24T12:03:04;5.82;;;2.40;;
78772;SDS011;68111;44.728;11.290;2023-06-24T12:05:38;7.38;;;3.10;;
78772;SDS011;68111;44.728;11.290;2023-06-24T12:08:11;7.45;;;2.80;;
78772;SDS011;68111;44.728;11.290;2023-06-24T12:10:43;4.65;;;2.63;;
78772;SDS011;68111;44.728;11.290;2023-06-24T12:13:11;4.45;;;2.42;;
78772;SDS011;68111;44.728;11.290;2023-06-24T12:15:38;4.72;;;2.30;;
78772;SDS011;68111;44.728;11.290;2023-06-24T12:18:05;3.88;;;2.38;;
78772;SDS011;68111;44.728;11.290;2023-06-24T12:20:32;3.72;;;2.40;;
78772;SDS011;68111;44.728;11.290;2023-06-24T12:23:04;3.17;;;2.20;;
78772;SDS011;68111;44.728;11.290;2023-06-24T12:25:31;5.45;;;2.50;;
78772;SDS011;68111;44.728;11.290;2023-06-24T12:27:58;4.40;;;2.35;;
78772;SDS011;68111;44.728;11.290;2023-06-24T12:30:26;5.15;;;2.25;;
78772;SDS011;68111;44.728;11.290;2023-06-24T12:32:53;4.32;;;2.63;;
78772;SDS011;68111;44.728;11.290;2023-06-24T12:35:21;2.75;;;2.20;;
78772;SDS011;68111;44.728;11.290;2023-06-24T12:37:48;3.60;;;2.30;;
78772;SDS011;68111;44.728;11.290;2023-06-24T12:40:15;3.95;;;2.22;;
78772;SDS011;68111;44.728;11.290;2023-06-24T12:42:42;5.07;;;2.17;;
78772;SDS011;68111;44.728;11.290;2023-06-24T12:45:09;6.90;;;2.58;;
78772;SDS011;68111;44.728;11.290;2023-06-24T12:47:36;5.18;;;2.33;;
78772;SDS011;68111;44.728;11.290;2023-06-24T12:50:02;3.58;;;2.30;;
78772;SDS011;68111;44.728;11.290;2023-06-24T12:52:35;7.63;;;2.60;;
78772;SDS011;68111;44.728;11.290;2023-06-24T12:55:02;8.63;;;4.10;;
78772;SDS011;68111;44.728;11.290;2023-06-24T12:57:30;7.38;;;2.78;;
78772;SDS011;68111;44.728;11.290;2023-06-24T12:59:57;3.80;;;2.33;;
78772;SDS011;68111;44.728;11.290;2023-06-24T13:02:24;5.45;;;2.58;;
78772;SDS011;68111;44.728;11.290;2023-06-24T13:04:51;4.25;;;2.40;;
78772;SDS011;68111;44.728;11.290;2023-06-24T13:07:18;4.38;;;2.22;;
78772;SDS011;68111;44.728;11.290;2023-06-24T13:09:44;4.57;;;2.00;;
78772;SDS011;68111;44.728;11.290;2023-06-24T13:12:11;6.25;;;2.17;;
78772;SDS011;68111;44.728;11.290;2023-06-24T13:14:38;5.10;;;2.33;;
78772;SDS011;68111;44.728;11.290;2023-06-24T13:17:05;4.85;;;2.40;;
78772;SDS011;68111;44.728;11.290;2023-06-24T13:19:32;3.78;;;2.20;;
78772;SDS011;68111;44.728;11.290;2023-06-24T13:21:59;4.72;;;2.83;;
78772;SDS011;68111;44.728;11.290;2023-06-24T13:24:26;5.53;;;2.28;;
78772;SDS011;68111;44.728;11.290;2023-06-24T13:26:52;7.35;;;2.13;;
78772;SDS011;68111;44.728;11.290;2023-06-24T13:29:19;4.13;;;2.25;;
78772;SDS011;68111;44.728;11.290;2023-06-24T13:31:47;3.38;;;2.30;;
78772;SDS011;68111;44.728;11.290;2023-06-24T13:34:13;3.80;;;2.00;;
78772;SDS011;68111;44.728;11.290;2023-06-24T13:36:40;4.10;;;2.28;;
78772;SDS011;68111;44.728;11.290;2023-06-24T13:39:08;4.18;;;2.40;;
78772;SDS011;68111;44.728;11.290;2023-06-24T13:41:37;4.43;;;2.22;;
78772;SDS011;68111;44.728;11.290;2023-06-24T13:44:04;5.68;;;2.33;;
78772;SDS011;68111;44.728;11.290;2023-06-24T13:46:31;3.38;;;2.20;;
78772;SDS011;68111;44.728;11.290;2023-06-24T13:48:59;3.03;;;2.22;;
78772;SDS011;68111;44.728;11.290;2023-06-24T13:51:31;4.65;;;2.35;;
78772;SDS011;68111;44.728;11.290;2023-06-24T13:53:58;3.58;;;2.28;;
78772;SDS011;68111;44.728;11.290;2023-06-24T13:56:26;3.67;;;1.90;;
78772;SDS011;68111;44.728;11.290;2023-06-24T13:58:53;4.97;;;2.00;;
78772;SDS011;68111;44.728;11.290;2023-06-24T14:01:21;4.00;;;2.05;;
78772;SDS011;68111;44.728;11.290;2023-06-24T14:03:48;3.67;;;1.95;;
78772;SDS011;68111;44.728;11.290;2023-06-24T14:06:19;3.03;;;2.28;;
78772;SDS011;68111;44.728;11.290;2023-06-24T14:08:46;6.13;;;2.55;;
78772;SDS011;68111;44.728;11.290;2023-06-24T14:11:13;6.05;;;2.05;;
78772;SDS011;68111;44.728;11.290;2023-06-24T14:13:40;4.70;;;2.15;;
78772;SDS011;68111;44.728;11.290;2023-06-24T14:16:08;4.63;;;2.00;;
78772;SDS011;68111;44.728;11.290;2023-06-24T14:18:36;3.47;;;1.92;;
78772;SDS011;68111;44.728;11.290;2023-06-24T14:21:04;3.35;;;1.95;;
78772;SDS011;68111;44.728;11.290;2023-06-24T14:23:32;4.82;;;1.90;;
78772;SDS011;68111;44.728;11.290;2023-06-24T14:25:59;3.67;;;2.05;;
78772;SDS011;68111;44.728;11.290;2023-06-24T14:28:26;2.78;;;2.10;;
78772;SDS011;68111;44.728;11.290;2023-06-24T14:30:53;3.35;;;1.80;;
78772;SDS011;68111;44.728;11.290;2023-06-24T14:33:20;2.33;;;1.70;;
78772;SDS011;68111;44.728;11.290;2023-06-24T14:35:47;2.85;;;1.77;;
78772;SDS011;68111;44.728;11.290;2023-06-24T14:38:14;4.15;;;1.60;;
78772;SDS011;68111;44.728;11.290;2023-06-24T14:40:40;5.32;;;1.63;;
78772;SDS011;68111;44.728;11.290;2023-06-24T14:43:07;4.68;;;1.70;;
78772;SDS011;68111;44.728;11.290;2023-06-24T14:45:34;4.30;;;1.63;;
78772;SDS011;68111;44.728;11.290;2023-06-24T14:48:00;4.38;;;1.85;;
78772;SDS011;68111;44.728;11.290;2023-06-24T14:50:27;3.92;;;1.70;;